Decoded Metar for KY50 ( in _UNIDENTIFIED) (IATA:N/A) | Meteo·Mobile Aviation Weather
aviador You're here:

KY50 Decoded Metar

in _UNIDENTIFIED
Report Time2019-02-23 00:56:00
UTC Time2019-02-23 01:09:38
Flight Rules vfr VFR
Wind130° at 03 kt
W.Rank130° ranks 29
Current wind is below 130° avg. (6.4)
Visibility9999 m
Phenomena:N/A
Clouds:Overcast 110 Hf
Expected CloudBase > 2,400 ft AGL from Temp-Dew spread
Ceiling11,000 ft
Temp-2°C (ISA -15)
Dew Point-8°C (64% RH)
AAT-6.0°C
QNH1028 hPa
Density Alt-1,473 ft
Elevation860 ft
Report Wrong Elevation
Raw Report
KY50 230056Z AUTO 13003KT 10SM OVC110 M02/M08 A3036 RMK AO2 SLP312
T10221083 FZRANO $=

Extra information for KY50:More info

Metar Taf Metar & Taf Last 4 Metars F.Rules Stats Wind Profile Meteogram Temp Stats Metar ALERT Operation Metar Decoded Social comments